sensor_id;sensor_type;location;lat;lon;timestamp;pressure;altitude;pressure_sealevel;temperature;humidity
64644;BME280;51056;50.330;7.914;2023-02-28T00:03:00;101851.06;;;1.44;68.92
64644;BME280;51056;50.330;7.914;2023-02-28T00:06:04;101848.38;;;1.30;69.13
64644;BME280;51056;50.330;7.914;2023-02-28T00:09:07;101851.88;;;1.35;69.29
64644;BME280;51056;50.330;7.914;2023-02-28T00:12:10;101852.56;;;1.17;69.51
64644;BME280;51056;50.330;7.914;2023-02-28T00:15:13;101854.28;;;1.15;69.21
64644;BME280;51056;50.330;7.914;2023-02-28T00:18:16;101854.28;;;1.12;69.92
64644;BME280;51056;50.330;7.914;2023-02-28T00:21:19;101849.94;;;1.10;69.76
64644;BME280;51056;50.330;7.914;2023-02-28T00:24:22;101845.63;;;1.07;69.78
64644;BME280;51056;50.330;7.914;2023-02-28T00:27:25;101846.47;;;1.05;69.71
64644;BME280;51056;50.330;7.914;2023-02-28T00:30:29;101847.31;;;1.02;70.05
64644;BME280;51056;50.330;7.914;2023-02-28T00:33:32;101843.00;;;1.01;69.86
64644;BME280;51056;50.330;7.914;2023-02-28T00:36:35;101851.56;;;0.97;69.81
64644;BME280;51056;50.330;7.914;2023-02-28T00:39:40;101854.09;;;0.91;70.31
64644;BME280;51056;50.330;7.914;2023-02-28T00:42:44;101859.16;;;0.82;70.57
64644;BME280;51056;50.330;7.914;2023-02-28T00:45:47;101858.34;;;0.89;70.87
64644;BME280;51056;50.330;7.914;2023-02-28T00:48:51;101856.59;;;0.85;71.30
64644;BME280;51056;50.330;7.914;2023-02-28T00:51:55;101856.56;;;0.80;72.04
64644;BME280;51056;50.330;7.914;2023-02-28T00:54:58;101857.44;;;0.82;71.53
64644;BME280;51056;50.330;7.914;2023-02-28T00:58:01;101860.91;;;0.86;71.54
64644;BME280;51056;50.330;7.914;2023-02-28T01:01:04;101858.31;;;0.86;71.71
64644;BME280;51056;50.330;7.914;2023-02-28T01:04:07;101858.34;;;0.89;71.68
64644;BME280;51056;50.330;7.914;2023-02-28T01:15:55;101855.66;;;0.75;72.52
64644;BME280;51056;50.330;7.914;2023-02-28T01:19:01;101855.56;;;0.64;73.03
64644;BME280;51056;50.330;7.914;2023-02-28T01:22:05;101862.38;;;0.59;72.96
64644;BME280;51056;50.330;7.914;2023-02-28T01:25:09;101860.66;;;0.58;72.65
64644;BME280;51056;50.330;7.914;2023-02-28T01:32:33;101860.69;;;0.61;71.96
64644;BME280;51056;50.330;7.914;2023-02-28T01:35:37;101857.19;;;0.55;72.97
64644;BME280;51056;50.330;7.914;2023-02-28T01:38:40;101862.31;;;0.53;73.23
64644;BME280;51056;50.330;7.914;2023-02-28T01:41:44;101857.13;;;0.50;73.32
64644;BME280;51056;50.330;7.914;2023-02-28T01:48:08;101856.31;;;0.57;73.29
64644;BME280;51056;50.330;7.914;2023-02-28T01:51:17;101855.53;;;0.61;73.46
64644;BME280;51056;50.330;7.914;2023-02-28T01:54:22;101854.63;;;0.56;73.80
64644;BME280;51056;50.330;7.914;2023-02-28T01:57:34;101855.47;;;0.55;74.26
64644;BME280;51056;50.330;7.914;2023-02-28T02:00:41;101855.50;;;0.58;74.25
64644;BME280;51056;50.330;7.914;2023-02-28T02:03:50;101845.16;;;0.52;74.00
64644;BME280;51056;50.330;7.914;2023-02-28T02:06:58;101851.97;;;0.50;74.13
64644;BME280;51056;50.330;7.914;2023-02-28T02:10:03;101839.13;;;0.52;73.93
64644;BME280;51056;50.330;7.914;2023-02-28T02:19:30;101839.88;;;0.40;74.00
64644;BME280;51056;50.330;7.914;2023-02-28T02:29:46;101828.56;;;0.27;72.72
64644;BME280;51056;50.330;7.914;2023-02-28T02:36:29;101824.22;;;0.21;72.14
64644;BME280;51056;50.330;7.914;2023-02-28T02:39:31;101829.28;;;0.15;73.16
64644;BME280;51056;50.330;7.914;2023-02-28T02:48:52;101831.69;;;-0.02;74.74
64644;BME280;51056;50.330;7.914;2023-02-28T02:51:58;101835.91;;;-0.04;74.76
64644;BME280;51056;50.330;7.914;2023-02-28T02:55:04;101840.25;;;-0.03;74.51
64644;BME280;51056;50.330;7.914;2023-02-28T02:58:10;101834.09;;;-0.15;73.80
64644;BME280;51056;50.330;7.914;2023-02-28T03:01:21;101838.38;;;-0.14;73.26
64644;BME280;51056;50.330;7.914;2023-02-28T03:04:31;101844.38;;;-0.15;72.97
64644;BME280;51056;50.330;7.914;2023-02-28T03:07:35;101846.09;;;-0.14;74.20
64644;BME280;51056;50.330;7.914;2023-02-28T03:10:39;101832.34;;;-0.16;73.88
64644;BME280;51056;50.330;7.914;2023-02-28T03:20:32;101837.34;;;-0.29;73.89
64644;BME280;51056;50.330;7.914;2023-02-28T03:24:01;101845.66;;;-0.45;73.26
64644;BME280;51056;50.330;7.914;2023-02-28T03:27:04;101838.00;;;-0.43;74.15
64644;BME280;51056;50.330;7.914;2023-02-28T03:30:12;101838.88;;;-0.40;73.23
64644;BME280;51056;50.330;7.914;2023-02-28T03:33:19;101836.28;;;-0.43;72.87
64644;BME280;51056;50.330;7.914;2023-02-28T03:36:27;101836.28;;;-0.44;72.80
64644;BME280;51056;50.330;7.914;2023-02-28T03:39:37;101841.38;;;-0.46;73.49
64644;BME280;51056;50.330;7.914;2023-02-28T03:42:42;101841.31;;;-0.49;73.58
64644;BME280;51056;50.330;7.914;2023-02-28T03:45:46;101842.19;;;-0.50;73.29
64644;BME280;51056;50.330;7.914;2023-02-28T03:48:55;101841.28;;;-0.54;73.53
64644;BME280;51056;50.330;7.914;2023-02-28T03:52:02;101841.19;;;-0.60;74.21
64644;BME280;51056;50.330;7.914;2023-02-28T03:55:06;101842.91;;;-0.60;74.44
64644;BME280;51056;50.330;7.914;2023-02-28T04:01:23;101852.13;;;-0.72;73.11
64644;BME280;51056;50.330;7.914;2023-02-28T04:04:26;101856.38;;;-0.74;73.39
64644;BME280;51056;50.330;7.914;2023-02-28T04:07:29;101850.31;;;-0.79;73.60
64644;BME280;51056;50.330;7.914;2023-02-28T04:10:33;101850.38;;;-0.74;73.49
64644;BME280;51056;50.330;7.914;2023-02-28T04:13:36;101853.69;;;-0.83;74.22
64644;BME280;51056;50.330;7.914;2023-02-28T04:16:40;101859.69;;;-0.82;74.17
64644;BME280;51056;50.330;7.914;2023-02-28T04:19:43;101850.22;;;-0.85;74.43
64644;BME280;51056;50.330;7.914;2023-02-28T04:22:46;101862.16;;;-0.87;74.12
64644;BME280;51056;50.330;7.914;2023-02-28T04:25:49;101861.25;;;-0.90;73.33
64644;BME280;51056;50.330;7.914;2023-02-28T04:28:53;101856.09;;;-0.92;72.98
64644;BME280;51056;50.330;7.914;2023-02-28T04:31:56;101861.25;;;-0.92;73.69
64644;BME280;51056;50.330;7.914;2023-02-28T04:35:03;101855.94;;;-1.01;75.00
64644;BME280;51056;50.330;7.914;2023-02-28T04:38:06;101861.81;;;-1.08;74.94
64644;BME280;51056;50.330;7.914;2023-02-28T04:41:09;101860.16;;;-1.05;74.27
64644;BME280;51056;50.330;7.914;2023-02-28T04:44:12;101862.69;;;-1.06;74.42
64644;BME280;51056;50.330;7.914;2023-02-28T04:47:16;101860.03;;;-1.12;75.03
64644;BME280;51056;50.330;7.914;2023-02-28T04:50:19;101860.81;;;-1.15;75.12
64644;BME280;51056;50.330;7.914;2023-02-28T04:53:23;101858.25;;;-1.18;74.44
64644;BME280;51056;50.330;7.914;2023-02-28T04:56:25;101865.94;;;-1.18;74.50
64644;BME280;51056;50.330;7.914;2023-02-28T04:59:28;101865.03;;;-1.19;74.62
64644;BME280;51056;50.330;7.914;2023-02-28T05:02:33;101854.66;;;-1.26;75.39
64644;BME280;51056;50.330;7.914;2023-02-28T05:05:36;101860.59;;;-1.30;74.98
64644;BME280;51056;50.330;7.914;2023-02-28T05:08:39;101863.94;;;-1.33;74.57
64644;BME280;51056;50.330;7.914;2023-02-28T05:11:43;101868.94;;;-1.41;74.68
64644;BME280;51056;50.330;7.914;2023-02-28T05:14:45;101871.50;;;-1.41;74.84
64644;BME280;51056;50.330;7.914;2023-02-28T05:17:48;101871.47;;;-1.42;75.06
64644;BME280;51056;50.330;7.914;2023-02-28T05:20:52;101873.13;;;-1.44;74.88
64644;BME280;51056;50.330;7.914;2023-02-28T05:23:56;101877.41;;;-1.46;75.13
64644;BME280;51056;50.330;7.914;2023-02-28T05:27:01;101878.22;;;-1.47;75.54
64644;BME280;51056;50.330;7.914;2023-02-28T05:30:34;101885.09;;;-1.46;75.24
64644;BME280;51056;50.330;7.914;2023-02-28T05:33:37;101879.91;;;-1.49;74.87
64644;BME280;51056;50.330;7.914;2023-02-28T05:36:41;101873.03;;;-1.50;74.58
64644;BME280;51056;50.330;7.914;2023-02-28T05:39:44;101877.22;;;-1.55;74.36
64644;BME280;51056;50.330;7.914;2023-02-28T05:42:51;101879.66;;;-1.61;74.88
64644;BME280;51056;50.330;7.914;2023-02-28T05:45:58;101881.44;;;-1.59;74.34
64644;BME280;51056;50.330;7.914;2023-02-28T05:49:02;101887.34;;;-1.61;74.47
64644;BME280;51056;50.330;7.914;2023-02-28T05:52:13;101879.59;;;-1.65;75.00
64644;BME280;51056;50.330;7.914;2023-02-28T05:55:16;101887.31;;;-1.63;74.93
64644;BME280;51056;50.330;7.914;2023-02-28T05:58:20;101878.75;;;-1.64;75.69
64644;BME280;51056;50.330;7.914;2023-02-28T06:01:25;101885.50;;;-1.69;75.25
64644;BME280;51056;50.330;7.914;2023-02-28T06:04:34;101884.66;;;-1.68;75.37
64644;BME280;51056;50.330;7.914;2023-02-28T06:07:46;101890.84;;;-1.56;75.51
64644;BME280;51056;50.330;7.914;2023-02-28T06:10:50;101895.28;;;-1.49;75.63
64644;BME280;51056;50.330;7.914;2023-02-28T06:13:57;101886.75;;;-1.48;75.90
64644;BME280;51056;50.330;7.914;2023-02-28T06:17:00;101892.00;;;-1.42;75.69
64644;BME280;51056;50.330;7.914;2023-02-28T06:20:04;101892.00;;;-1.42;75.89
64644;BME280;51056;50.330;7.914;2023-02-28T06:23:10;101895.53;;;-1.37;75.83
64644;BME280;51056;50.330;7.914;2023-02-28T06:26:13;101904.09;;;-1.35;76.28
64644;BME280;51056;50.330;7.914;2023-02-28T06:29:18;101899.88;;;-1.31;75.95
64644;BME280;51056;50.330;7.914;2023-02-28T06:32:22;101909.34;;;-1.29;76.26
64644;BME280;51056;50.330;7.914;2023-02-28T06:35:25;101903.34;;;-1.31;76.41
64644;BME280;51056;50.330;7.914;2023-02-28T06:38:29;101906.78;;;-1.30;76.37
64644;BME280;51056;50.330;7.914;2023-02-28T06:45:02;101908.50;;;-1.28;75.98
64644;BME280;51056;50.330;7.914;2023-02-28T06:48:11;101911.84;;;-1.32;76.41
64644;BME280;51056;50.330;7.914;2023-02-28T06:51:16;101914.44;;;-1.32;76.68
64644;BME280;51056;50.330;7.914;2023-02-28T06:54:20;101912.75;;;-1.30;76.88
64644;BME280;51056;50.330;7.914;2023-02-28T06:57:22;101918.75;;;-1.31;76.68
64644;BME280;51056;50.330;7.914;2023-02-28T07:00:27;101922.19;;;-1.29;76.61
64644;BME280;51056;50.330;7.914;2023-02-28T07:03:30;101923.09;;;-1.25;76.20
64644;BME280;51056;50.330;7.914;2023-02-28T07:06:33;101929.03;;;-1.72;78.90
64644;BME280;51056;50.330;7.914;2023-02-28T07:09:36;101927.91;;;-1.42;78.49
64644;BME280;51056;50.330;7.914;2023-02-28T07:12:39;101921.94;;;-1.43;77.97
64644;BME280;51056;50.330;7.914;2023-02-28T07:15:42;101917.00;;;-1.32;77.74
64644;BME280;51056;50.330;7.914;2023-02-28T07:18:45;101931.66;;;-1.25;76.98
64644;BME280;51056;50.330;7.914;2023-02-28T07:21:48;101930.91;;;-1.21;76.96
64644;BME280;51056;50.330;7.914;2023-02-28T07:24:51;101929.22;;;-1.19;76.83
64644;BME280;51056;50.330;7.914;2023-02-28T07:27:54;101930.09;;;-1.18;76.97
64644;BME280;51056;50.330;7.914;2023-02-28T07:31:05;101921.44;;;-1.22;76.64
64644;BME280;51056;50.330;7.914;2023-02-28T07:34:08;101921.50;;;-1.19;76.58
64644;BME280;51056;50.330;7.914;2023-02-28T07:37:12;101919.22;;;-1.05;76.41
64644;BME280;51056;50.330;7.914;2023-02-28T07:40:15;101915.97;;;-0.93;76.27
64644;BME280;51056;50.330;7.914;2023-02-28T07:43:20;101918.84;;;-0.75;75.89
64644;BME280;51056;50.330;7.914;2023-02-28T07:46:23;101926.78;;;-0.62;75.83
64644;BME280;51056;50.330;7.914;2023-02-28T07:49:26;101920.97;;;-0.51;75.74
64644;BME280;51056;50.330;7.914;2023-02-28T07:52:30;101927.88;;;-0.45;75.70
64644;BME280;51056;50.330;7.914;2023-02-28T07:55:32;101931.34;;;-0.43;75.70
64644;BME280;51056;50.330;7.914;2023-02-28T07:58:36;101933.97;;;-0.40;76.06
64644;BME280;51056;50.330;7.914;2023-02-28T08:01:39;101926.31;;;-0.37;76.14
64644;BME280;51056;50.330;7.914;2023-02-28T08:04:42;101929.16;;;-0.18;77.55
64644;BME280;51056;50.330;7.914;2023-02-28T08:07:46;101918.19;;;-0.05;75.63
64644;BME280;51056;50.330;7.914;2023-02-28T08:10:50;101926.44;;;-0.28;73.75
64644;BME280;51056;50.330;7.914;2023-02-28T08:13:54;101918.88;;;-0.17;72.55
64644;BME280;51056;50.330;7.914;2023-02-28T08:16:57;101911.69;;;0.21;71.06
64644;BME280;51056;50.330;7.914;2023-02-28T08:20:01;101902.97;;;0.10;70.24
64644;BME280;51056;50.330;7.914;2023-02-28T08:23:05;101909.97;;;0.22;70.42
64644;BME280;51056;50.330;7.914;2023-02-28T08:26:08;101906.69;;;0.34;70.08
64644;BME280;51056;50.330;7.914;2023-02-28T08:29:12;101901.59;;;0.37;69.07
64644;BME280;51056;50.330;7.914;2023-02-28T08:32:15;101903.53;;;0.59;67.78
64644;BME280;51056;50.330;7.914;2023-02-28T08:35:22;101899.13;;;0.46;68.44
64644;BME280;51056;50.330;7.914;2023-02-28T08:38:25;101898.47;;;0.65;67.75
64644;BME280;51056;50.330;7.914;2023-02-28T08:41:28;101898.56;;;0.75;66.61
64644;BME280;51056;50.330;7.914;2023-02-28T08:44:31;101891.78;;;0.86;66.17
64644;BME280;51056;50.330;7.914;2023-02-28T08:47:34;101908.00;;;0.76;64.86
64644;BME280;51056;50.330;7.914;2023-02-28T08:50:37;101899.47;;;0.80;64.18
64644;BME280;51056;50.330;7.914;2023-02-28T08:53:40;101898.78;;;0.96;63.27
64644;BME280;51056;50.330;7.914;2023-02-28T08:56:43;101898.81;;;0.99;62.21
64644;BME280;51056;50.330;7.914;2023-02-28T08:59:46;101890.34;;;1.12;62.35
64644;BME280;51056;50.330;7.914;2023-02-28T09:02:49;101886.97;;;1.24;60.35
64644;BME280;51056;50.330;7.914;2023-02-28T09:05:56;101893.16;;;1.45;60.05
64644;BME280;51056;50.330;7.914;2023-02-28T09:09:00;101894.91;;;1.49;58.94
64644;BME280;51056;50.330;7.914;2023-02-28T09:12:04;101891.50;;;1.54;58.62
64644;BME280;51056;50.330;7.914;2023-02-28T09:15:08;101894.13;;;1.62;58.94
64644;BME280;51056;50.330;7.914;2023-02-28T09:18:15;101887.31;;;1.72;57.44
64644;BME280;51056;50.330;7.914;2023-02-28T09:21:18;101878.69;;;1.68;57.10
64644;BME280;51056;50.330;7.914;2023-02-28T09:28:41;101876.13;;;1.68;55.60
64644;BME280;51056;50.330;7.914;2023-02-28T09:31:43;101878.78;;;1.79;55.96
64644;BME280;51056;50.330;7.914;2023-02-28T09:34:47;101879.63;;;1.81;55.07
64644;BME280;51056;50.330;7.914;2023-02-28T09:37:51;101875.31;;;1.74;55.23
64644;BME280;51056;50.330;7.914;2023-02-28T09:41:08;101882.19;;;1.78;55.06
64644;BME280;51056;50.330;7.914;2023-02-28T09:44:35;101872.75;;;1.80;55.49
64644;BME280;51056;50.330;7.914;2023-02-28T09:47:41;101866.97;;;2.30;54.90
64644;BME280;51056;50.330;7.914;2023-02-28T09:50:55;101875.63;;;2.43;55.39
64644;BME280;51056;50.330;7.914;2023-02-28T09:54:02;101870.44;;;2.41;53.81
64644;BME280;51056;50.330;7.914;2023-02-28T09:57:12;101866.22;;;2.78;53.09
64644;BME280;51056;50.330;7.914;2023-02-28T10:00:18;101859.31;;;2.82;50.88
64644;BME280;51056;50.330;7.914;2023-02-28T10:03:58;101867.09;;;3.10;50.77
64644;BME280;51056;50.330;7.914;2023-02-28T10:06:54;101867.09;;;2.97;50.19
64644;BME280;51056;50.330;7.914;2023-02-28T10:09:57;101860.22;;;3.07;49.49
64644;BME280;51056;50.330;7.914;2023-02-28T10:13:04;101865.38;;;3.06;48.67
64644;BME280;51056;50.330;7.914;2023-02-28T10:16:16;101870.53;;;3.01;49.25
64644;BME280;51056;50.330;7.914;2023-02-28T10:19:26;101876.53;;;2.66;48.76
64644;BME280;51056;50.330;7.914;2023-02-28T10:22:50;101869.59;;;2.50;49.08
64644;BME280;51056;50.330;7.914;2023-02-28T10:26:13;101877.41;;;2.82;48.84
64644;BME280;51056;50.330;7.914;2023-02-28T10:29:21;101867.06;;;2.90;48.65
64644;BME280;51056;50.330;7.914;2023-02-28T10:32:27;101869.69;;;2.91;48.75
64644;BME280;51056;50.330;7.914;2023-02-28T10:35:32;101877.41;;;2.85;47.77
64644;BME280;51056;50.330;7.914;2023-02-28T10:38:37;101876.56;;;3.03;47.92
64644;BME280;51056;50.330;7.914;2023-02-28T10:41:42;101874.00;;;3.00;48.16
64644;BME280;51056;50.330;7.914;2023-02-28T10:44:46;101872.28;;;3.03;48.34
64644;BME280;51056;50.330;7.914;2023-02-28T10:48:32;101880.03;;;3.33;47.86
64644;BME280;51056;50.330;7.914;2023-02-28T10:51:16;101877.41;;;3.43;47.62
64644;BME280;51056;50.330;7.914;2023-02-28T10:54:22;101867.09;;;3.45;46.86
64644;BME280;51056;50.330;7.914;2023-02-28T10:57:27;101880.00;;;3.56;46.70
64644;BME280;51056;50.330;7.914;2023-02-28T11:00:35;101873.91;;;3.81;46.60
64644;BME280;51056;50.330;7.914;2023-02-28T11:03:39;101866.09;;;3.86;46.19
64644;BME280;51056;50.330;7.914;2023-02-28T11:06:42;101870.44;;;3.76;46.24
64644;BME280;51056;50.330;7.914;2023-02-28T11:09:46;101870.47;;;3.65;45.37
64644;BME280;51056;50.330;7.914;2023-02-28T11:12:54;101867.91;;;3.59;46.08
64644;BME280;51056;50.330;7.914;2023-02-28T11:15:58;101864.34;;;4.00;45.30
64644;BME280;51056;50.330;7.914;2023-02-28T11:19:06;101856.63;;;3.88;45.12
64644;BME280;51056;50.330;7.914;2023-02-28T11:22:19;101862.69;;;3.70;44.72
64644;BME280;51056;50.330;7.914;2023-02-28T11:25:25;101855.78;;;3.80;45.55
64644;BME280;51056;50.330;7.914;2023-02-28T11:28:33;101853.94;;;4.15;44.71
64644;BME280;51056;50.330;7.914;2023-02-28T11:31:36;101854.66;;;4.43;44.30
64644;BME280;51056;50.330;7.914;2023-02-28T11:34:40;101851.41;;;3.97;43.84
64644;BME280;51056;50.330;7.914;2023-02-28T11:37:45;101846.28;;;3.88;44.04
64644;BME280;51056;50.330;7.914;2023-02-28T11:45:13;101839.41;;;3.79;43.86
64644;BME280;51056;50.330;7.914;2023-02-28T11:52:02;101841.94;;;3.94;44.41
64644;BME280;51056;50.330;7.914;2023-02-28T11:58:33;101836.00;;;3.68;44.08
64644;BME280;51056;50.330;7.914;2023-02-28T12:11:55;101830.59;;;4.20;42.47
64644;BME280;51056;50.330;7.914;2023-02-28T12:18:26;101823.63;;;4.33;41.85
64644;BME280;51056;50.330;7.914;2023-02-28T12:21:41;101822.69;;;4.48;42.23
64644;BME280;51056;50.330;7.914;2023-02-28T12:24:54;101821.69;;;4.67;41.88
64644;BME280;51056;50.330;7.914;2023-02-28T12:28:01;101821.69;;;4.70;41.17
64644;BME280;51056;50.330;7.914;2023-02-28T12:31:06;101817.34;;;4.71;40.59
64644;BME280;51056;50.330;7.914;2023-02-28T12:34:13;101808.69;;;4.75;41.51
64644;BME280;51056;50.330;7.914;2023-02-28T12:40:56;101800.47;;;5.27;40.75
64644;BME280;51056;50.330;7.914;2023-02-28T12:44:02;101810.06;;;5.16;40.06
64644;BME280;51056;50.330;7.914;2023-02-28T12:47:09;101797.19;;;5.08;40.05
64644;BME280;51056;50.330;7.914;2023-02-28T12:50:14;101793.44;;;5.36;40.21
64644;BME280;51056;50.330;7.914;2023-02-28T12:56:54;101791.66;;;5.39;40.12
64644;BME280;51056;50.330;7.914;2023-02-28T13:00:00;101787.19;;;5.56;40.70
64644;BME280;51056;50.330;7.914;2023-02-28T13:09:16;101790.94;;;6.03;39.83
64644;BME280;51056;50.330;7.914;2023-02-28T13:12:20;101790.44;;;6.40;38.36
64644;BME280;51056;50.330;7.914;2023-02-28T13:15:25;101798.53;;;6.20;38.71
64644;BME280;51056;50.330;7.914;2023-02-28T13:18:32;101792.00;;;6.50;38.31
64644;BME280;51056;50.330;7.914;2023-02-28T13:21:41;101790.91;;;6.66;38.85
64644;BME280;51056;50.330;7.914;2023-02-28T13:24:49;101793.22;;;6.85;38.30
64644;BME280;51056;50.330;7.914;2023-02-28T13:27:53;101785.44;;;6.82;38.05
64644;BME280;51056;50.330;7.914;2023-02-28T13:31:00;101785.59;;;6.74;37.82
64644;BME280;51056;50.330;7.914;2023-02-28T13:34:05;101784.56;;;6.83;37.62
64644;BME280;51056;50.330;7.914;2023-02-28T13:40:33;101783.84;;;6.16;39.34
64644;BME280;51056;50.330;7.914;2023-02-28T13:53:51;101786.75;;;5.94;39.15
64644;BME280;51056;50.330;7.914;2023-02-28T14:00:20;101781.78;;;6.39;39.44
64644;BME280;51056;50.330;7.914;2023-02-28T14:06:51;101776.31;;;5.97;38.90
64644;BME280;51056;50.330;7.914;2023-02-28T14:09:56;101778.78;;;6.08;38.79
64644;BME280;51056;50.330;7.914;2023-02-28T14:16:04;101769.34;;;5.99;39.26
64644;BME280;51056;50.330;7.914;2023-02-28T14:19:15;101774.69;;;5.86;39.48
64644;BME280;51056;50.330;7.914;2023-02-28T14:28:56;101777.41;;;5.76;40.14
64644;BME280;51056;50.330;7.914;2023-02-28T14:38:20;101769.56;;;6.44;39.70
64644;BME280;51056;50.330;7.914;2023-02-28T14:41:32;101768.69;;;6.47;39.30
64644;BME280;51056;50.330;7.914;2023-02-28T14:45:19;101762.84;;;6.33;39.07
64644;BME280;51056;50.330;7.914;2023-02-28T14:48:22;101758.44;;;5.74;40.09
64644;BME280;51056;50.330;7.914;2023-02-28T14:51:26;101767.56;;;6.03;39.42
64644;BME280;51056;50.330;7.914;2023-02-28T14:54:30;101768.22;;;6.20;39.37
64644;BME280;51056;50.330;7.914;2023-02-28T14:57:34;101753.09;;;6.47;39.01
64644;BME280;51056;50.330;7.914;2023-02-28T15:00:49;101757.97;;;7.18;38.29
64644;BME280;51056;50.330;7.914;2023-02-28T15:03:57;101742.31;;;9.43;34.72
64644;BME280;51056;50.330;7.914;2023-02-28T15:07:35;101746.84;;;8.34;34.67
64644;BME280;51056;50.330;7.914;2023-02-28T15:10:35;101748.72;;;7.48;36.98
64644;BME280;51056;50.330;7.914;2023-02-28T15:13:42;101750.59;;;7.40;37.18
64644;BME280;51056;50.330;7.914;2023-02-28T15:16:52;101742.25;;;6.73;38.34
64644;BME280;51056;50.330;7.914;2023-02-28T15:19:59;101756.47;;;6.52;39.62
64644;BME280;51056;50.330;7.914;2023-02-28T15:23:02;101751.56;;;6.34;39.97
64644;BME280;51056;50.330;7.914;2023-02-28T15:26:06;101754.75;;;5.94;40.33
64644;BME280;51056;50.330;7.914;2023-02-28T15:29:12;101757.72;;;5.62;40.68
64644;BME280;51056;50.330;7.914;2023-02-28T15:35:28;101749.16;;;5.53;40.70
64644;BME280;51056;50.330;7.914;2023-02-28T15:38:33;101754.41;;;5.47;41.56
64644;BME280;51056;50.330;7.914;2023-02-28T15:41:37;101755.16;;;5.57;41.89
64644;BME280;51056;50.330;7.914;2023-02-28T15:44:48;101757.81;;;5.51;42.25
64644;BME280;51056;50.330;7.914;2023-02-28T15:47:52;101759.59;;;5.47;41.69
64644;BME280;51056;50.330;7.914;2023-02-28T15:54:00;101751.22;;;5.24;42.33
64644;BME280;51056;50.330;7.914;2023-02-28T15:57:04;101760.88;;;5.08;42.89
64644;BME280;51056;50.330;7.914;2023-02-28T16:00:15;101757.28;;;5.21;42.39
64644;BME280;51056;50.330;7.914;2023-02-28T16:03:32;101760.97;;;4.97;42.16
64644;BME280;51056;50.330;7.914;2023-02-28T16:06:44;101760.19;;;4.87;42.25
64644;BME280;51056;50.330;7.914;2023-02-28T16:09:47;101757.59;;;4.87;42.71
64644;BME280;51056;50.330;7.914;2023-02-28T16:12:52;101757.53;;;4.97;42.16
64644;BME280;51056;50.330;7.914;2023-02-28T16:15:56;101760.19;;;4.87;42.87
64644;BME280;51056;50.330;7.914;2023-02-28T16:19:00;101759.22;;;5.02;43.07
64644;BME280;51056;50.330;7.914;2023-02-28T16:22:04;101767.81;;;5.06;42.80
64644;BME280;51056;50.330;7.914;2023-02-28T16:25:10;101763.50;;;5.03;43.55
64644;BME280;51056;50.330;7.914;2023-02-28T16:28:24;101758.38;;;4.99;43.96
64644;BME280;51056;50.330;7.914;2023-02-28T16:31:28;101760.25;;;4.83;43.04
64644;BME280;51056;50.330;7.914;2023-02-28T16:34:31;101768.00;;;4.86;44.12
64644;BME280;51056;50.330;7.914;2023-02-28T16:37:36;101767.16;;;4.82;44.31
64644;BME280;51056;50.330;7.914;2023-02-28T16:40:44;101775.88;;;4.72;44.64
64644;BME280;51056;50.330;7.914;2023-02-28T16:43:50;101769.91;;;4.64;44.76
64644;BME280;51056;50.330;7.914;2023-02-28T16:46:58;101775.16;;;4.52;46.18
64644;BME280;51056;50.330;7.914;2023-02-28T16:50:04;101789.91;;;4.42;46.26
64644;BME280;51056;50.330;7.914;2023-02-28T16:53:07;101785.72;;;4.26;46.86
64644;BME280;51056;50.330;7.914;2023-02-28T16:56:20;101792.69;;;4.13;47.05
64644;BME280;51056;50.330;7.914;2023-02-28T16:59:24;101792.75;;;4.01;47.98
64644;BME280;51056;50.330;7.914;2023-02-28T17:02:28;101797.16;;;3.80;48.39
64644;BME280;51056;50.330;7.914;2023-02-28T17:05:33;101804.94;;;3.69;49.72
64644;BME280;51056;50.330;7.914;2023-02-28T17:08:41;101807.59;;;3.51;49.96
64644;BME280;51056;50.330;7.914;2023-02-28T17:11:46;101808.47;;;3.39;50.95
64644;BME280;51056;50.330;7.914;2023-02-28T17:14:51;101809.38;;;3.29;52.27
64644;BME280;51056;50.330;7.914;2023-02-28T17:17:57;101811.09;;;3.16;52.71
64644;BME280;51056;50.330;7.914;2023-02-28T17:21:01;101811.94;;;3.06;53.35
64644;BME280;51056;50.330;7.914;2023-02-28T17:24:08;101830.06;;;3.05;53.85
64644;BME280;51056;50.330;7.914;2023-02-28T17:27:17;101836.06;;;2.90;55.23
64644;BME280;51056;50.330;7.914;2023-02-28T17:30:21;101837.78;;;2.86;55.14
64644;BME280;51056;50.330;7.914;2023-02-28T17:33:29;101836.94;;;2.78;56.07
64644;BME280;51056;50.330;7.914;2023-02-28T17:36:33;101841.22;;;2.67;56.56
64644;BME280;51056;50.330;7.914;2023-02-28T17:39:37;101844.66;;;2.56;57.58
64644;BME280;51056;50.330;7.914;2023-02-28T17:42:41;101847.25;;;2.60;57.37
64644;BME280;51056;50.330;7.914;2023-02-28T17:45:45;101852.38;;;2.50;57.22
64644;BME280;51056;50.330;7.914;2023-02-28T17:48:49;101859.25;;;2.41;57.42
64644;BME280;51056;50.330;7.914;2023-02-28T17:51:54;101862.69;;;2.37;57.96
64644;BME280;51056;50.330;7.914;2023-02-28T17:54:58;101865.22;;;2.26;58.45
64644;BME280;51056;50.330;7.914;2023-02-28T17:58:01;101868.63;;;2.19;59.35
64644;BME280;51056;50.330;7.914;2023-02-28T18:01:07;101867.75;;;2.09;59.11
64644;BME280;51056;50.330;7.914;2023-02-28T18:04:13;101870.28;;;1.98;59.76
64644;BME280;51056;50.330;7.914;2023-02-28T18:07:16;101874.53;;;1.93;59.50
64644;BME280;51056;50.330;7.914;2023-02-28T18:10:20;101877.06;;;1.81;60.59
64644;BME280;51056;50.330;7.914;2023-02-28T18:13:23;101878.72;;;1.70;60.87
64644;BME280;51056;50.330;7.914;2023-02-28T18:16:26;101877.84;;;1.63;61.10
64644;BME280;51056;50.330;7.914;2023-02-28T18:19:30;101876.94;;;1.58;60.64
64644;BME280;51056;50.330;7.914;2023-02-28T18:22:33;101879.47;;;1.50;60.75
64644;BME280;51056;50.330;7.914;2023-02-28T18:25:38;101881.97;;;1.43;61.55
64644;BME280;51056;50.330;7.914;2023-02-28T18:28:42;101883.66;;;1.36;62.03
64644;BME280;51056;50.330;7.914;2023-02-28T18:31:46;101881.94;;;1.35;62.08
64644;BME280;51056;50.330;7.914;2023-02-28T18:34:50;101883.59;;;1.30;62.47
64644;BME280;51056;50.330;7.914;2023-02-28T18:37:53;101887.00;;;1.26;62.50
64644;BME280;51056;50.330;7.914;2023-02-28T18:41:00;101890.38;;;1.20;62.80